createdAt,value
2023-04-27T00:00:27.289Z,0.00
2023-04-27T00:01:27.240Z,0.00
2023-04-27T00:02:27.349Z,0.00
2023-04-27T00:03:27.399Z,0.00
2023-04-27T00:04:27.555Z,0.00
2023-04-27T00:05:27.249Z,0.00
2023-04-27T00:06:27.184Z,0.00
2023-04-27T00:07:27.130Z,0.00
2023-04-27T00:08:27.139Z,0.00
2023-04-27T00:09:27.119Z,0.00
2023-04-27T00:10:27.084Z,0.00
2023-04-27T00:11:27.089Z,0.00
2023-04-27T00:12:27.094Z,0.00
2023-04-27T00:13:27.040Z,0.00
2023-04-27T00:14:27.014Z,0.00
2023-04-27T00:15:26.993Z,0.00
2023-04-27T00:16:26.997Z,0.00
2023-04-27T00:17:26.992Z,0.00
2023-04-27T00:18:26.939Z,0.00
2023-04-27T00:19:26.974Z,0.00
2023-04-27T00:20:26.904Z,0.00
2023-04-27T00:21:26.887Z,0.00
2023-04-27T00:22:26.869Z,0.00
2023-04-27T00:23:26.882Z,0.00
2023-04-27T00:24:26.920Z,0.00
2023-04-27T00:25:26.861Z,0.00
2023-04-27T00:26:26.832Z,0.00
2023-04-27T00:27:26.804Z,0.00
2023-04-27T00:28:26.774Z,0.00
2023-04-27T00:29:26.769Z,0.00
2023-04-27T00:30:26.753Z,0.00
2023-04-27T00:31:26.762Z,0.00
2023-04-27T00:32:26.740Z,0.00
2023-04-27T00:33:26.765Z,0.00
2023-04-27T00:34:26.674Z,0.00
2023-04-27T00:35:26.651Z,0.00
2023-04-27T00:36:26.639Z,0.00
2023-04-27T00:37:26.620Z,0.00
2023-04-27T00:38:26.663Z,0.00
2023-04-27T00:39:26.584Z,0.00
2023-04-27T00:40:26.577Z,0.00
2023-04-27T00:41:26.574Z,0.00
2023-04-27T00:42:26.565Z,0.00
2023-04-27T00:43:26.585Z,0.00
2023-04-27T00:44:26.504Z,0.00
2023-04-27T00:45:26.500Z,0.00
2023-04-27T00:46:26.598Z,0.00
2023-04-27T00:47:26.499Z,0.00
2023-04-27T00:48:26.439Z,0.00
2023-04-27T00:49:26.491Z,0.00
2023-04-27T00:50:26.396Z,0.00
2023-04-27T00:51:26.380Z,0.00
2023-04-27T00:52:26.366Z,0.00
2023-04-27T00:53:26.348Z,0.00
2023-04-27T00:54:26.328Z,0.00
2023-04-27T00:55:26.310Z,0.00
2023-04-27T00:56:26.353Z,0.00
2023-04-27T00:57:26.283Z,0.00
2023-04-27T00:58:26.265Z,0.00
2023-04-27T00:59:26.252Z,0.00
2023-04-27T01:00:26.229Z,0.00
2023-04-27T01:01:33.802Z,0.00
2023-04-27T01:03:31.073Z,0.00
2023-04-27T01:04:30.954Z,0.00
2023-04-27T01:06:35.465Z,0.00
2023-04-27T01:07:35.440Z,0.00
2023-04-27T01:09:40.228Z,0.00
2023-04-27T01:10:40.222Z,0.00
2023-04-27T01:12:33.798Z,0.00
2023-04-27T01:13:33.765Z,0.00
2023-04-27T01:15:38.124Z,0.00
2023-04-27T01:16:38.151Z,0.00
2023-04-27T01:18:42.784Z,0.00
2023-04-27T01:19:42.771Z,0.00
2023-04-27T01:20:42.725Z,0.00
2023-04-27T01:21:42.709Z,0.00
2023-04-27T01:22:42.687Z,0.00
2023-04-27T01:23:42.672Z,0.00
2023-04-27T01:24:42.676Z,0.00
2023-04-27T01:25:42.642Z,0.00
2023-04-27T01:26:42.620Z,0.00
2023-04-27T01:27:42.600Z,0.00
2023-04-27T01:28:42.582Z,0.00
2023-04-27T01:29:42.565Z,0.00
2023-04-27T01:30:42.548Z,0.00
2023-04-27T01:31:42.587Z,0.00
2023-04-27T01:32:42.590Z,0.00
2023-04-27T01:33:42.500Z,0.00
2023-04-27T01:34:42.472Z,0.00
2023-04-27T01:35:42.479Z,0.00
2023-04-27T01:36:42.445Z,0.00
2023-04-27T01:37:42.426Z,0.00
2023-04-27T01:38:42.412Z,0.00
2023-04-27T01:39:42.392Z,0.00
2023-04-27T01:40:42.372Z,0.00
2023-04-27T01:41:42.354Z,0.00
2023-04-27T01:42:42.367Z,0.00
2023-04-27T01:43:42.324Z,0.00
2023-04-27T01:44:42.306Z,0.00
2023-04-27T01:45:42.283Z,0.00
2023-04-27T01:46:42.323Z,0.00
2023-04-27T01:47:42.308Z,0.00
2023-04-27T01:48:42.262Z,0.00
2023-04-27T01:49:42.217Z,0.00
2023-04-27T01:50:42.197Z,0.00
2023-04-27T01:51:42.182Z,0.00
2023-04-27T01:52:42.161Z,0.00
2023-04-27T01:53:42.143Z,0.00
2023-04-27T01:54:42.119Z,0.00
2023-04-27T01:55:42.111Z,0.00
2023-04-27T01:56:42.091Z,0.00
2023-04-27T01:57:42.097Z,0.00
2023-04-27T01:58:42.058Z,0.00
2023-04-27T01:59:42.043Z,0.00
2023-04-27T02:00:42.016Z,0.00
2023-04-27T02:01:42.078Z,0.00
2023-04-27T02:02:42.127Z,0.00
2023-04-27T02:03:42.095Z,0.00
2023-04-27T02:04:42.155Z,0.00
2023-04-27T02:05:41.929Z,0.00
2023-04-27T02:06:41.909Z,0.00
2023-04-27T02:07:41.897Z,0.00
2023-04-27T02:08:41.875Z,0.00
2023-04-27T02:09:41.856Z,0.00
2023-04-27T02:10:41.839Z,0.00
2023-04-27T02:11:41.827Z,0.00
2023-04-27T02:12:41.799Z,0.00
2023-04-27T02:13:41.810Z,0.00
2023-04-27T02:14:41.792Z,0.00
2023-04-27T02:15:41.830Z,0.00
2023-04-27T02:16:41.801Z,0.00
2023-04-27T02:17:41.729Z,0.00
2023-04-27T02:18:41.725Z,0.00
2023-04-27T02:19:41.672Z,0.00
2023-04-27T02:20:41.648Z,0.00
2023-04-27T02:21:41.643Z,0.00
2023-04-27T02:22:41.610Z,0.00
2023-04-27T02:23:41.597Z,0.00
2023-04-27T02:24:41.579Z,0.00
2023-04-27T02:25:41.559Z,0.00
2023-04-27T02:26:41.542Z,0.00
2023-04-27T02:27:41.531Z,0.00
2023-04-27T02:28:41.504Z,0.00
2023-04-27T02:29:41.489Z,0.00
2023-04-27T02:30:41.471Z,0.00
2023-04-27T02:31:41.465Z,0.00
2023-04-27T02:32:41.509Z,0.00
2023-04-27T02:33:41.419Z,0.00
2023-04-27T02:34:41.398Z,0.00
2023-04-27T02:35:41.386Z,0.00
2023-04-27T02:36:41.383Z,0.00
2023-04-27T02:37:41.347Z,0.00
2023-04-27T02:38:41.321Z,0.00
2023-04-27T02:39:41.309Z,0.00
2023-04-27T02:40:41.289Z,0.00
2023-04-27T02:41:41.269Z,0.00
2023-04-27T02:42:41.261Z,0.00
2023-04-27T02:43:41.237Z,0.00
2023-04-27T02:44:41.221Z,0.00
2023-04-27T02:45:41.193Z,0.00
2023-04-27T02:46:41.218Z,0.00
2023-04-27T02:47:41.200Z,0.00
2023-04-27T02:48:41.140Z,0.00
2023-04-27T02:49:41.123Z,0.00
2023-04-27T02:50:41.099Z,0.00
2023-04-27T02:51:41.081Z,0.00
2023-04-27T02:52:41.065Z,0.00
2023-04-27T02:53:41.069Z,0.00
2023-04-27T02:54:41.054Z,0.00
2023-04-27T02:55:41.011Z,0.00
2023-04-27T02:56:40.988Z,0.00
2023-04-27T02:57:40.973Z,0.00
2023-04-27T02:58:40.951Z,0.00
2023-04-27T02:59:40.943Z,0.00
2023-04-27T03:00:40.912Z,0.00
2023-04-27T03:01:40.934Z,0.00
2023-04-27T03:02:41.063Z,0.00
2023-04-27T03:03:41.053Z,0.00
2023-04-27T03:04:40.869Z,0.00
2023-04-27T03:05:40.825Z,0.00
2023-04-27T03:06:40.805Z,0.00
2023-04-27T03:07:40.784Z,0.00
2023-04-27T03:08:40.766Z,0.00
2023-04-27T03:09:40.778Z,0.00
2023-04-27T03:10:40.729Z,0.00
2023-04-27T03:11:40.731Z,0.00
2023-04-27T03:12:40.697Z,0.00
2023-04-27T03:13:40.673Z,0.00
2023-04-27T03:14:40.656Z,0.00
2023-04-27T03:15:40.634Z,0.00
2023-04-27T03:16:40.654Z,0.00
2023-04-27T03:17:40.624Z,0.00
2023-04-27T03:18:40.590Z,0.00
2023-04-27T03:19:40.560Z,0.00
2023-04-27T03:20:40.542Z,0.00
2023-04-27T03:21:40.520Z,0.00
2023-04-27T03:22:40.505Z,0.00
2023-04-27T03:23:40.492Z,0.00
2023-04-27T03:24:40.468Z,0.00
2023-04-27T03:25:40.452Z,0.00
2023-04-27T03:26:40.438Z,0.00
2023-04-27T03:27:40.418Z,0.00
2023-04-27T03:28:40.392Z,0.00
2023-04-27T03:29:40.395Z,0.00
2023-04-27T03:30:40.366Z,0.00
2023-04-27T03:31:40.381Z,0.00
2023-04-27T03:32:40.425Z,0.00
2023-04-27T03:33:40.296Z,0.00
2023-04-27T03:34:40.283Z,0.00
2023-04-27T03:35:40.263Z,0.00
2023-04-27T03:36:40.239Z,0.00
2023-04-27T03:37:40.224Z,0.00
2023-04-27T03:38:40.225Z,0.00
2023-04-27T03:39:40.197Z,0.00
2023-04-27T03:40:40.166Z,0.00
2023-04-27T03:41:40.146Z,0.00
2023-04-27T03:42:40.137Z,0.00
2023-04-27T03:43:40.286Z,0.00
2023-04-27T03:44:40.091Z,0.00
2023-04-27T03:45:40.113Z,0.00
2023-04-27T03:46:40.055Z,0.00
2023-04-27T03:47:40.131Z,0.00
2023-04-27T03:48:40.019Z,0.00
2023-04-27T03:49:39.995Z,0.00
2023-04-27T03:50:39.988Z,0.00
2023-04-27T03:51:39.965Z,0.00
2023-04-27T03:52:39.941Z,0.00
2023-04-27T03:53:39.919Z,0.00
2023-04-27T03:54:39.903Z,0.00
2023-04-27T03:55:39.884Z,0.00
2023-04-27T03:56:39.868Z,0.00
2023-04-27T03:57:39.848Z,0.00
2023-04-27T03:58:39.845Z,0.00
2023-04-27T03:59:39.805Z,0.00
2023-04-27T04:00:39.795Z,0.00
2023-04-27T04:01:39.799Z,0.00
2023-04-27T04:02:39.880Z,0.00
2023-04-27T04:03:39.781Z,0.00
2023-04-27T04:04:39.928Z,0.00
2023-04-27T04:05:39.695Z,0.00
2023-04-27T04:06:39.676Z,0.00
2023-04-27T04:07:39.655Z,0.00
2023-04-27T04:08:39.637Z,0.00
2023-04-27T04:09:39.624Z,0.00
2023-04-27T04:10:39.597Z,0.00
2023-04-27T04:11:39.586Z,0.00
2023-04-27T04:12:39.594Z,0.00
2023-04-27T04:13:39.584Z,0.00
2023-04-27T04:14:39.525Z,0.00
2023-04-27T04:15:39.537Z,0.00
2023-04-27T04:16:39.488Z,0.00
2023-04-27T04:17:39.540Z,0.00
2023-04-27T04:18:39.445Z,0.00
2023-04-27T04:19:39.431Z,0.00
2023-04-27T04:20:39.418Z,0.00
2023-04-27T04:21:39.393Z,0.00
2023-04-27T04:22:39.372Z,0.00
2023-04-27T04:23:39.354Z,0.00
2023-04-27T04:24:39.334Z,0.00
2023-04-27T04:25:39.316Z,0.00
2023-04-27T04:26:39.300Z,0.00
2023-04-27T04:27:39.282Z,0.00
2023-04-27T04:28:39.262Z,5.63
2023-04-27T04:29:39.244Z,5.63
2023-04-27T04:30:39.220Z,5.63
2023-04-27T04:31:39.244Z,5.63
2023-04-27T04:32:39.202Z,5.63
2023-04-27T04:33:39.178Z,5.63
2023-04-27T04:34:39.151Z,5.63
2023-04-27T04:35:39.130Z,5.63
2023-04-27T04:36:39.114Z,5.63
2023-04-27T04:37:39.099Z,5.63
2023-04-27T04:38:39.076Z,5.63
2023-04-27T04:39:39.058Z,5.63
2023-04-27T04:40:39.044Z,5.63
2023-04-27T04:41:39.031Z,5.63
2023-04-27T04:42:39.009Z,11.25
2023-04-27T04:43:38.985Z,11.25
2023-04-27T04:44:38.981Z,11.25
2023-04-27T04:45:38.959Z,11.25
2023-04-27T04:46:38.955Z,11.25
2023-04-27T04:47:38.955Z,11.25
2023-04-27T04:48:38.897Z,11.25
2023-04-27T04:49:38.913Z,11.25
2023-04-27T04:50:38.961Z,11.25
2023-04-27T04:51:38.870Z,11.25
2023-04-27T04:52:38.833Z,11.25
2023-04-27T04:53:38.805Z,11.25
2023-04-27T04:54:38.790Z,11.25
2023-04-27T04:55:38.788Z,11.25
2023-04-27T04:56:38.750Z,11.25
2023-04-27T04:57:38.733Z,11.25
2023-04-27T04:58:38.713Z,11.25
2023-04-27T04:59:38.699Z,11.25
2023-04-27T05:00:38.689Z,11.25
2023-04-27T05:01:38.669Z,11.25
2023-04-27T05:02:38.737Z,11.25
2023-04-27T05:03:38.781Z,11.25
2023-04-27T05:04:38.717Z,11.25
2023-04-27T05:05:38.585Z,16.88
2023-04-27T05:06:38.571Z,16.88
2023-04-27T05:07:38.562Z,16.88
2023-04-27T05:08:38.559Z,16.88
2023-04-27T05:09:38.753Z,16.88
2023-04-27T05:10:38.643Z,16.88
2023-04-27T05:11:38.520Z,16.88
2023-04-27T05:12:38.465Z,16.88
2023-04-27T05:13:38.465Z,16.88
2023-04-27T05:14:38.434Z,16.88
2023-04-27T05:15:38.413Z,22.50
2023-04-27T05:16:38.403Z,22.50
2023-04-27T05:17:38.400Z,22.50
2023-04-27T05:18:38.364Z,22.50
2023-04-27T05:19:38.369Z,22.50
2023-04-27T05:20:38.331Z,22.50
2023-04-27T05:21:38.307Z,28.13
2023-04-27T05:22:38.301Z,28.13
2023-04-27T05:23:38.275Z,28.13
2023-04-27T05:24:38.262Z,28.13
2023-04-27T05:25:38.246Z,28.13
2023-04-27T05:26:38.227Z,33.75
2023-04-27T05:27:38.209Z,33.75
2023-04-27T05:28:38.201Z,33.75
2023-04-27T05:29:38.173Z,39.38
2023-04-27T05:30:38.154Z,39.38
2023-04-27T05:31:38.165Z,39.38
2023-04-27T05:32:38.157Z,39.38
2023-04-27T05:33:38.105Z,39.38
2023-04-27T05:34:38.094Z,39.38
2023-04-27T05:35:38.091Z,39.38
2023-04-27T05:36:38.059Z,39.38
2023-04-27T05:37:38.038Z,39.38
2023-04-27T05:38:38.020Z,45.00
2023-04-27T05:39:38.002Z,50.63
2023-04-27T05:40:37.980Z,56.25
2023-04-27T05:41:37.967Z,56.25
2023-04-27T05:42:37.964Z,56.25
2023-04-27T05:43:37.936Z,61.88
2023-04-27T05:44:37.934Z,61.88
2023-04-27T05:45:37.956Z,61.88
2023-04-27T05:46:38.930Z,61.88
2023-04-27T05:47:37.889Z,61.88
2023-04-27T05:48:37.862Z,67.50
2023-04-27T05:49:37.844Z,67.50
2023-04-27T05:50:37.826Z,67.50
2023-04-27T05:51:37.843Z,67.50
2023-04-27T05:52:38.304Z,67.50
2023-04-27T05:53:37.766Z,67.50
2023-04-27T05:54:37.776Z,67.50
2023-04-27T05:55:37.739Z,67.50
2023-04-27T05:56:37.720Z,73.13
2023-04-27T05:57:37.725Z,73.13
2023-04-27T05:58:37.691Z,73.13
2023-04-27T05:59:37.674Z,73.13
2023-04-27T06:00:37.663Z,73.13
2023-04-27T06:01:37.639Z,73.13
2023-04-27T06:02:37.931Z,73.13
2023-04-27T06:03:37.726Z,73.13
2023-04-27T06:04:37.679Z,73.13
2023-04-27T06:05:37.602Z,73.13
2023-04-27T06:06:37.570Z,78.75
2023-04-27T06:07:37.621Z,78.75
2023-04-27T06:08:37.547Z,78.75
2023-04-27T06:09:37.511Z,84.38
2023-04-27T06:10:37.498Z,84.38
2023-04-27T06:11:37.482Z,84.38
2023-04-27T06:12:37.466Z,90.00
2023-04-27T06:13:37.455Z,90.00
2023-04-27T06:14:37.433Z,90.00
2023-04-27T06:15:37.467Z,95.63
2023-04-27T06:16:37.398Z,95.63
2023-04-27T06:17:37.438Z,95.63
2023-04-27T06:18:37.365Z,95.63
2023-04-27T06:19:37.351Z,101.25
2023-04-27T06:20:37.364Z,101.25
2023-04-27T06:21:37.316Z,101.25
2023-04-27T06:22:37.304Z,106.88
2023-04-27T06:23:37.299Z,106.88
2023-04-27T06:24:37.287Z,106.88
2023-04-27T06:25:37.315Z,112.50
2023-04-27T06:26:37.243Z,112.50
2023-04-27T06:27:37.226Z,118.13
2023-04-27T06:28:37.278Z,118.13
2023-04-27T06:29:37.228Z,112.50
2023-04-27T06:30:38.912Z,123.75
2023-04-27T06:31:37.187Z,118.13
2023-04-27T06:32:37.166Z,123.75
2023-04-27T06:33:37.131Z,129.38
2023-04-27T06:34:37.110Z,129.38
2023-04-27T06:35:37.103Z,135.00
2023-04-27T06:36:37.094Z,140.63
2023-04-27T06:37:37.070Z,135.00
2023-04-27T06:38:37.054Z,140.63
2023-04-27T06:39:37.041Z,146.25
2023-04-27T06:40:37.076Z,146.25
2023-04-27T06:41:37.009Z,140.63
2023-04-27T06:42:37.020Z,146.25
2023-04-27T06:43:36.982Z,151.88
2023-04-27T06:44:36.962Z,151.88
2023-04-27T06:45:36.956Z,151.88
2023-04-27T06:46:36.992Z,151.88
2023-04-27T06:47:36.915Z,163.13
2023-04-27T06:48:36.909Z,168.75
2023-04-27T06:49:36.892Z,168.75
2023-04-27T06:50:36.888Z,180.00
2023-04-27T06:51:36.856Z,191.25
2023-04-27T06:52:36.851Z,196.88
2023-04-27T06:53:36.836Z,196.88
2023-04-27T06:54:36.817Z,202.50
2023-04-27T06:55:36.866Z,202.50
2023-04-27T06:56:36.793Z,196.88
2023-04-27T06:57:36.900Z,213.75
2023-04-27T06:58:36.771Z,202.50
2023-04-27T06:59:36.745Z,219.38
2023-04-27T07:00:36.731Z,253.13
2023-04-27T07:01:36.764Z,270.00
2023-04-27T07:02:36.851Z,258.75
2023-04-27T07:03:36.960Z,191.25
2023-04-27T07:04:36.795Z,168.75
2023-04-27T07:05:36.661Z,168.75
2023-04-27T07:06:36.653Z,185.63
2023-04-27T07:07:36.686Z,174.38
2023-04-27T07:08:36.625Z,168.75
2023-04-27T07:09:36.618Z,180.00
2023-04-27T07:10:36.598Z,185.63
2023-04-27T07:11:36.649Z,196.88
2023-04-27T07:12:36.576Z,196.88
2023-04-27T07:13:36.561Z,219.38
2023-04-27T07:14:36.551Z,180.00
2023-04-27T07:15:36.551Z,213.75
2023-04-27T07:16:36.653Z,163.13
2023-04-27T07:17:36.547Z,168.75
2023-04-27T07:18:36.545Z,191.25
2023-04-27T07:19:36.494Z,151.88
2023-04-27T07:20:36.468Z,157.50
2023-04-27T07:21:36.457Z,264.38
2023-04-27T07:22:36.444Z,168.75
2023-04-27T07:23:36.432Z,180.00
2023-04-27T07:24:36.422Z,230.63
2023-04-27T07:25:36.409Z,208.13
2023-04-27T07:26:36.401Z,326.25
2023-04-27T07:27:36.546Z,292.50
2023-04-27T07:28:36.373Z,348.75
2023-04-27T07:29:36.363Z,360.00
2023-04-27T07:30:36.362Z,382.50
2023-04-27T07:31:36.442Z,309.38
2023-04-27T07:32:36.356Z,315.00
2023-04-27T07:33:36.310Z,331.88
2023-04-27T07:34:49.064Z,331.88
2023-04-27T07:35:36.300Z,315.00
2023-04-27T07:36:36.280Z,416.25
2023-04-27T07:37:36.269Z,421.88
2023-04-27T07:38:36.260Z,309.38
2023-04-27T07:39:36.249Z,326.25
2023-04-27T07:40:36.245Z,320.63
2023-04-27T07:41:36.228Z,281.25
2023-04-27T07:42:36.222Z,298.13
2023-04-27T07:43:36.229Z,270.00
2023-04-27T07:44:36.205Z,466.88
2023-04-27T07:45:36.218Z,292.50
2023-04-27T07:46:36.197Z,258.75
2023-04-27T07:47:36.207Z,292.50
2023-04-27T07:48:36.170Z,331.88
2023-04-27T07:49:36.159Z,298.13
2023-04-27T07:50:36.181Z,281.25
2023-04-27T07:51:36.144Z,270.00
2023-04-27T07:52:36.149Z,281.25
2023-04-27T07:53:36.127Z,478.13
2023-04-27T07:54:36.124Z,320.63
2023-04-27T07:55:36.116Z,292.50
2023-04-27T07:56:36.104Z,523.13
2023-04-27T07:57:36.185Z,388.13
2023-04-27T07:58:36.087Z,579.38
2023-04-27T07:59:36.109Z,405.00
2023-04-27T08:00:36.076Z,326.25
2023-04-27T08:01:36.164Z,500.63
2023-04-27T08:02:36.271Z,585.00
2023-04-27T08:03:36.238Z,337.50
2023-04-27T08:04:36.474Z,540.00
2023-04-27T08:05:36.235Z,320.63
2023-04-27T08:06:36.926Z,489.38
2023-04-27T08:07:38.348Z,303.75
2023-04-27T08:08:36.058Z,551.25
2023-04-27T08:09:36.017Z,303.75
2023-04-27T08:10:36.013Z,281.25
2023-04-27T08:11:36.013Z,292.50
2023-04-27T08:12:36.043Z,337.50
2023-04-27T08:13:36.003Z,292.50
2023-04-27T08:14:35.986Z,354.38
2023-04-27T08:15:35.990Z,315.00
2023-04-27T08:16:35.980Z,337.50
2023-04-27T08:17:35.997Z,343.13
2023-04-27T08:18:35.968Z,320.63
2023-04-27T08:19:36.021Z,343.13
2023-04-27T08:20:35.953Z,376.88
2023-04-27T08:21:35.950Z,331.88
2023-04-27T08:22:35.996Z,331.88
2023-04-27T08:23:35.935Z,326.25
2023-04-27T08:24:35.939Z,472.50
2023-04-27T08:25:35.933Z,331.88
2023-04-27T08:26:35.916Z,326.25
2023-04-27T08:27:35.921Z,315.00
2023-04-27T08:28:35.913Z,331.88
2023-04-27T08:29:35.907Z,354.38
2023-04-27T08:30:35.894Z,534.38
2023-04-27T08:31:35.935Z,343.13
2023-04-27T08:32:35.949Z,635.63
2023-04-27T08:33:35.876Z,393.75
2023-04-27T08:34:35.874Z,495.00
2023-04-27T08:35:35.884Z,393.75
2023-04-27T08:36:35.886Z,573.75
2023-04-27T08:37:35.856Z,399.38
2023-04-27T08:38:35.880Z,298.13
2023-04-27T08:39:35.866Z,331.88
2023-04-27T08:40:35.835Z,371.25
2023-04-27T08:41:35.837Z,495.00
2023-04-27T08:42:35.882Z,511.88
2023-04-27T08:43:35.822Z,573.75
2023-04-27T08:44:35.833Z,450.00
2023-04-27T08:45:35.814Z,556.88
2023-04-27T08:46:35.835Z,382.50
2023-04-27T08:47:43.526Z,697.50
2023-04-27T08:48:35.805Z,556.88
2023-04-27T08:49:35.797Z,703.13
2023-04-27T08:50:35.788Z,523.13
2023-04-27T08:51:35.796Z,562.50
2023-04-27T08:52:35.793Z,691.88
2023-04-27T08:53:35.779Z,680.63
2023-04-27T08:54:35.778Z,523.13
2023-04-27T08:55:35.781Z,523.13
2023-04-27T08:56:35.779Z,590.63
2023-04-27T08:57:35.768Z,495.00
2023-04-27T08:58:35.787Z,691.88
2023-04-27T08:59:35.762Z,624.38
2023-04-27T09:00:35.761Z,568.13
2023-04-27T09:01:35.785Z,478.13
2023-04-27T09:02:35.892Z,517.50
2023-04-27T09:03:35.910Z,579.38
2023-04-27T09:04:35.877Z,585.00
2023-04-27T09:47:22.337Z,1001.25
2023-04-27T09:48:22.255Z,1046.25
2023-04-27T09:49:22.250Z,1051.88
2023-04-27T09:50:22.257Z,1051.88
2023-04-27T09:51:22.259Z,1068.75
2023-04-27T09:52:22.251Z,1080.00
2023-04-27T09:53:22.257Z,1068.75
2023-04-27T09:54:22.259Z,1063.13
2023-04-27T09:55:22.262Z,1074.38
2023-04-27T09:56:22.292Z,1063.13
2023-04-27T09:57:22.264Z,1080.00
2023-04-27T09:58:22.277Z,1085.63
2023-04-27T09:59:22.271Z,1080.00
2023-04-27T10:00:22.282Z,1091.25
2023-04-27T10:01:22.314Z,1102.50
2023-04-27T10:02:24.858Z,1108.13
2023-04-27T10:03:22.464Z,1096.88
2023-04-27T10:04:22.561Z,1119.38
2023-04-27T10:05:22.452Z,1130.63
2023-04-27T10:06:22.295Z,1147.50
2023-04-27T10:07:22.299Z,1158.75
2023-04-27T10:08:22.303Z,1198.13
2023-04-27T10:09:22.308Z,1220.63
2023-04-27T10:10:22.308Z,1198.13
2023-04-27T10:11:22.316Z,1226.25
2023-04-27T10:12:22.318Z,1271.25
2023-04-27T10:13:22.322Z,1299.38
2023-04-27T10:14:22.333Z,1372.50
2023-04-27T10:15:22.332Z,1389.38
2023-04-27T10:16:22.404Z,1411.88
2023-04-27T10:17:22.375Z,1350.00
2023-04-27T10:18:22.349Z,1338.75
2023-04-27T10:19:22.356Z,1338.75
2023-04-27T10:20:22.358Z,1372.50
2023-04-27T10:21:22.364Z,1366.88
2023-04-27T10:22:23.858Z,1411.88
2023-04-27T10:23:22.372Z,1372.50
2023-04-27T10:24:22.397Z,1344.38
2023-04-27T10:25:22.385Z,1338.75
2023-04-27T10:26:22.389Z,1350.00
2023-04-27T10:27:22.402Z,1372.50
2023-04-27T10:28:22.405Z,1344.38
2023-04-27T10:29:22.409Z,1338.75
2023-04-27T10:30:22.419Z,1344.38
2023-04-27T10:31:22.489Z,1333.13
2023-04-27T10:32:22.454Z,1293.75
2023-04-27T10:33:22.437Z,1271.25
2023-04-27T10:34:22.443Z,1293.75
2023-04-27T10:35:22.449Z,1260.00
2023-04-27T10:36:22.453Z,1260.00
2023-04-27T10:37:22.459Z,1237.50
2023-04-27T10:38:22.470Z,1220.63
2023-04-27T10:39:29.941Z,1260.00
2023-04-27T10:40:22.484Z,1119.38
2023-04-27T10:41:22.490Z,1265.63
2023-04-27T10:42:22.495Z,1293.75
2023-04-27T10:43:22.499Z,1215.00
2023-04-27T10:44:22.509Z,1119.38
2023-04-27T10:45:22.515Z,1063.13
2023-04-27T10:46:22.541Z,1198.13
2023-04-27T10:47:22.530Z,1153.13
2023-04-27T10:48:22.544Z,888.75
2023-04-27T10:49:22.541Z,776.25
2023-04-27T10:50:22.553Z,860.63
2023-04-27T10:51:22.560Z,905.63
2023-04-27T10:52:22.568Z,1102.50
2023-04-27T10:53:22.623Z,1091.25
2023-04-27T10:54:22.586Z,1141.88
2023-04-27T10:55:22.591Z,1186.88
2023-04-27T10:56:22.587Z,1063.13
2023-04-27T10:57:22.589Z,1108.13
2023-04-27T10:58:22.612Z,1136.25
2023-04-27T10:59:23.235Z,961.88
2023-04-27T11:00:22.675Z,1108.13
2023-04-27T11:01:22.719Z,1136.25
2023-04-27T11:02:22.758Z,1068.75
2023-04-27T11:03:22.714Z,1186.88
2023-04-27T11:04:22.671Z,1181.25
2023-04-27T11:05:22.636Z,1125.00
2023-04-27T11:06:22.632Z,1181.25
2023-04-27T11:07:22.657Z,1209.38
2023-04-27T11:08:22.673Z,1141.88
2023-04-27T11:09:22.667Z,1170.00
2023-04-27T11:10:22.657Z,1091.25
2023-04-27T11:11:22.671Z,1164.38
2023-04-27T11:12:22.677Z,1136.25
2023-04-27T11:13:23.477Z,1085.63
2023-04-27T11:14:22.686Z,1125.00
2023-04-27T11:15:22.686Z,1074.38
2023-04-27T11:16:22.710Z,1102.50
2023-04-27T11:17:22.722Z,1102.50
2023-04-27T11:18:22.697Z,990.00
2023-04-27T11:19:22.702Z,1006.88
2023-04-27T11:20:22.707Z,860.63
2023-04-27T11:21:22.720Z,984.38
2023-04-27T11:22:22.723Z,871.88
2023-04-27T11:23:22.731Z,793.13
2023-04-27T11:24:22.736Z,770.63
2023-04-27T11:25:22.912Z,916.88
2023-04-27T11:26:22.735Z,995.63
2023-04-27T11:27:22.770Z,950.63
2023-04-27T11:28:22.757Z,877.50
2023-04-27T11:29:22.757Z,1018.13
2023-04-27T11:30:22.762Z,871.88
2023-04-27T11:31:22.805Z,894.38
2023-04-27T11:32:22.864Z,939.38
2023-04-27T11:33:22.768Z,1040.63
2023-04-27T11:34:23.038Z,1023.75
2023-04-27T11:35:22.795Z,956.25
2023-04-27T11:36:22.791Z,900.00
2023-04-27T11:37:22.798Z,815.63
2023-04-27T11:38:22.893Z,866.25
2023-04-27T11:39:22.943Z,877.50
2023-04-27T11:40:24.488Z,860.63
2023-04-27T11:41:22.800Z,815.63
2023-04-27T11:42:22.810Z,843.75
2023-04-27T11:43:22.809Z,855.00
2023-04-27T11:44:22.816Z,843.75
2023-04-27T11:45:22.814Z,759.38
2023-04-27T11:46:22.831Z,663.75
2023-04-27T11:47:22.996Z,618.75
2023-04-27T11:48:22.836Z,573.75
2023-04-27T11:49:22.832Z,562.50
2023-04-27T11:50:22.832Z,590.63
2023-04-27T11:51:22.835Z,596.25
2023-04-27T11:52:22.855Z,596.25
2023-04-27T11:53:22.840Z,568.13
2023-04-27T11:54:22.846Z,556.88
2023-04-27T11:55:22.846Z,585.00
2023-04-27T11:56:22.850Z,495.00
2023-04-27T11:57:22.863Z,523.13
2023-04-27T11:58:22.857Z,511.88
2023-04-27T11:59:22.858Z,517.50
2023-04-27T12:00:22.860Z,483.75
2023-04-27T12:01:34.813Z,483.75
2023-04-27T12:02:22.934Z,461.25
2023-04-27T12:03:23.102Z,500.63
2023-04-27T12:04:23.046Z,461.25
2023-04-27T12:05:23.022Z,472.50
2023-04-27T12:07:22.883Z,483.75
2023-04-27T12:08:22.878Z,483.75
2023-04-27T12:09:22.875Z,483.75
2023-04-27T12:10:22.886Z,511.88
2023-04-27T12:11:22.896Z,500.63
2023-04-27T12:12:22.883Z,500.63
2023-04-27T12:13:22.883Z,489.38
2023-04-27T12:14:22.885Z,461.25
2023-04-27T12:15:22.881Z,427.50
2023-04-27T12:16:22.946Z,438.75
2023-04-27T12:17:22.904Z,410.63
2023-04-27T12:18:22.901Z,427.50
2023-04-27T12:19:22.885Z,444.38
2023-04-27T12:20:22.898Z,478.13
2023-04-27T12:21:22.912Z,466.88
2023-04-27T12:22:22.900Z,489.38
2023-04-27T12:23:22.889Z,472.50
2023-04-27T12:24:22.890Z,427.50
2023-04-27T12:25:22.895Z,416.25
2023-04-27T12:26:22.894Z,444.38
2023-04-27T12:27:22.893Z,433.13
2023-04-27T12:28:22.890Z,388.13
2023-04-27T12:29:22.889Z,410.63
2023-04-27T12:30:22.903Z,399.38
2023-04-27T12:31:24.737Z,438.75
2023-04-27T12:32:22.902Z,315.00
2023-04-27T12:33:23.053Z,309.38
2023-04-27T12:34:22.899Z,427.50
2023-04-27T12:35:22.903Z,410.63
2023-04-27T12:36:22.892Z,393.75
2023-04-27T12:37:24.863Z,348.75
2023-04-27T12:38:22.915Z,331.88
2023-04-27T12:39:22.893Z,343.13
2023-04-27T12:40:22.897Z,371.25
2023-04-27T12:41:22.886Z,371.25
2023-04-27T12:42:22.892Z,388.13
2023-04-27T12:43:22.902Z,343.13
2023-04-27T12:44:22.889Z,286.88
2023-04-27T12:45:22.885Z,337.50
2023-04-27T12:46:22.982Z,331.88
2023-04-27T12:47:43.080Z,331.88
2023-04-27T12:48:22.895Z,337.50
2023-04-27T12:49:22.895Z,337.50
2023-04-27T12:50:22.881Z,331.88
2023-04-27T12:51:22.879Z,303.75
2023-04-27T12:52:22.881Z,292.50
2023-04-27T12:53:22.875Z,298.13
2023-04-27T12:54:22.870Z,298.13
2023-04-27T12:55:33.076Z,303.75
2023-04-27T12:56:22.876Z,315.00
2023-04-27T12:57:22.868Z,331.88
2023-04-27T12:58:22.873Z,326.25
2023-04-27T12:59:22.880Z,326.25
2023-04-27T13:00:22.864Z,320.63
2023-04-27T13:01:22.902Z,320.63
2023-04-27T13:02:22.976Z,320.63
2023-04-27T13:03:23.061Z,309.38
2023-04-27T13:04:23.500Z,292.50
2023-04-27T13:05:22.853Z,286.88
2023-04-27T13:06:22.859Z,275.63
2023-04-27T13:07:22.850Z,264.38
2023-04-27T13:08:22.861Z,264.38
2023-04-27T13:09:22.833Z,213.75
2023-04-27T13:10:22.839Z,191.25
2023-04-27T13:11:22.824Z,191.25
2023-04-27T13:12:22.839Z,191.25
2023-04-27T13:13:22.820Z,185.63
2023-04-27T13:14:22.815Z,196.88
2023-04-27T13:15:22.815Z,196.88
2023-04-27T13:16:22.830Z,202.50
2023-04-27T13:17:22.800Z,196.88
2023-04-27T13:18:22.802Z,196.88
2023-04-27T13:19:22.800Z,191.25
2023-04-27T13:20:22.787Z,213.75
2023-04-27T13:21:22.779Z,225.00
2023-04-27T13:22:22.781Z,208.13
2023-04-27T13:23:22.770Z,225.00
2023-04-27T13:24:22.776Z,230.63
2023-04-27T13:25:22.771Z,230.63
2023-04-27T13:26:22.757Z,236.25
2023-04-27T13:27:22.747Z,230.63
2023-04-27T13:28:22.745Z,236.25
2023-04-27T13:29:22.736Z,236.25
2023-04-27T13:30:22.735Z,230.63
2023-04-27T13:31:22.885Z,230.63
2023-04-27T13:32:22.924Z,225.00
2023-04-27T13:33:23.835Z,219.38
2023-04-27T13:34:22.711Z,208.13